Loging...

KPDC, Korea Polar Data Center

Korea Polar Data Center Scientific observations and results from Antarctica shall
be exchanged and made freely available

Keyword Search

Advanced Search

Search 934 data out of 30,800

Metadata Search Results1
No. Title Reg. Date
1 [KOPRI-KPDC-00002443]Observations of Carbon Monoxide (CO) in the Western North Pacific and the Bering Sea in 2012 2024-02-29
2 [KOPRI-KPDC-00000648]Long cores from Antarctic Ross Sea(RS15-LC108) 2024-02-19
3 [KOPRI-KPDC-00000646]Gravity cores from Antarctic Ross Sea(RS15-GC107). 2024-02-19
4 [KOPRI-KPDC-00002419]Sea level change over the Southern Ocean (1993-2022) calculated from multi-source satellite altimetry data 2023-11-29
5 [KOPRI-KPDC-00002418]Archaeal and bacterial community analysis of marine sediments in the Beaufort Sea 2023-11-29
6 [KOPRI-KPDC-00002417]Archaeal and bacterial community analysis of marine sediments in the East Siberian Sea 2023-11-29
7 [KOPRI-KPDC-00002416]Archaeal and bacterial community analysis of marine sediments in the Chukchi Sea 2023-11-29
8 [KOPRI-KPDC-00002401]Movement Tracking Data of Weddell Seals in the Ross Sea (2021) 2023-11-15
9 [KOPRI-KPDC-00002400]2023 FVCOM results for particle tracking in Svalbard Kongsfjorden (2007.07) 2023-11-14
10 [KOPRI-KPDC-00002399]2023 Near-bed sediment analysis results in Svalbard Kongsfjorden 2023-11-14
11 [KOPRI-KPDC-00002398]2023 FVCOM results for particle tracking in Svalbard Kongsfjorden (2007.05) 2023-11-14
12 [KOPRI-KPDC-00002377]ARA13C Hydrocasting observation of conductivity, temperature, and depth (CTD) 2023-11-08
13 [KOPRI-KPDC-00002376]ARA14C Hydrocasting observation of conductivity, temperature, and depth (CTD) 2023-11-08
14 [KOPRI-KPDC-00002190]mooring data in the Marian Cove from 2019 to 2021 2023-11-07
15 [KOPRI-KPDC-00001541]mooring data in the Marian Cove from 2019 2023-11-07
16 [KOPRI-KPDC-00001196]mooring data in the Marian Cove from 2018 to 2019 2023-11-07
17 [KOPRI-KPDC-00002374]ARA14C Sub-bottom profiler (SBP) Survey data 2023-11-07
18 [KOPRI-KPDC-00002373]ARA14C Multi-Channel Seismic Survey Data 2023-11-07
19 [KOPRI-KPDC-00002371]ARA14C sediment cores(MC,GC,BC,Dredge) data 2023-11-07
20 [KOPRI-KPDC-00002191]CTD data in the Marian Cove, Antarcica in 2021 2023-11-07
21 [KOPRI-KPDC-00002368]DOC in the Little America Basin 2023-11-06
22 [KOPRI-KPDC-00002367]Dissolved Inorganic carbon in the Ross Sea (Dec. 2020) 2023-11-06
23 [KOPRI-KPDC-00002294]CTD Data in the Ross Sea, Antarctica in 2023 2023-11-01
24 [KOPRI-KPDC-00002293]LADCP Data in the Ross Sea, Antarctica in 2023 2023-11-01
25 [KOPRI-KPDC-00002347]Fluorometer data on ARAON DaDis for Antarctic cruise, 2022/2023 2023-10-31
26 [KOPRI-KPDC-00002348]GPS data on ARAON DaDis for Antarctic cruise, 2022/2023 2023-10-31
27 [KOPRI-KPDC-00002349]Gyro compass data on ARAON DaDis for Antarctic cruise, 2022/2023 2023-10-31
28 [KOPRI-KPDC-00002350]Motion sensor data on ARAON DaDis for Antarctic cruise, 2022/2023 2023-10-31
29 [KOPRI-KPDC-00002351]Thermosalinograph data on ARAON DaDis for Antarctic cruise, 2022/2023 2023-10-31
30 [KOPRI-KPDC-00002352]Weather data on ARAON DaDis for Antarctic cruise, 2022/2023 2023-10-31
31 [KOPRI-KPDC-00002353]Wind data on ARAON DaDis for Antarctic cruise, 2022/2023 2023-10-31
32 [KOPRI-KPDC-00002354]Fluorometer data on ARAON DaDis for Arctic cruise, 2023 2023-10-31
33 [KOPRI-KPDC-00002355]GPS data on ARAON DaDis for Arctic cruise, 2023 2023-10-31
34 [KOPRI-KPDC-00002356]Gyro compass data on ARAON DaDis for Arctic cruise, 2023 2023-10-31
35 [KOPRI-KPDC-00002357]Motion sensor data on ARAON DaDis for Arctic cruise, 2023 2023-10-31
36 [KOPRI-KPDC-00002358]Thermosalinograph data on ARAON DaDis for Arctic cruise, 2023 2023-10-31
37 [KOPRI-KPDC-00002359]Weather data on ARAON DaDis for Arctic cruise, 2023 2023-10-31
38 [KOPRI-KPDC-00002360]Wind data on ARAON DaDis for Arctic cruise, 2023 2023-10-31
39 [KOPRI-KPDC-00002344]Particulate organic carbon (POC) in water and the total carbon contents of surface sediments in Ross Sea 2023-10-31
40 [KOPRI-KPDC-00002343]Daily carbon and nitrogen uptake rate of phytoplankton in the Ross Sea (February 2023) 2023-10-31
41 [KOPRI-KPDC-00002340]In-situ data of ARA14B for supporting remote sensing 2023-10-30
42 [KOPRI-KPDC-00002329]Gravity core from Antarctic Ross Sea (RS23-GC13) 2023-10-30
43 [KOPRI-KPDC-00002328]Gravity core from Antarctic Ross Sea (RS23-GC12) 2023-10-30
44 [KOPRI-KPDC-00002326]Gravity core from Antarctic Ross Sea (RS23-GC11) 2023-10-30
45 [KOPRI-KPDC-00002325]Gravity core from Antarctic Ross Sea (RS23-GC10) 2023-10-30
46 [KOPRI-KPDC-00002324]Gravity core from Antarctic Ross Sea (RS20-GC09) 2023-10-30
47 [KOPRI-KPDC-00002323]Gravity core from Antarctic Ross Sea (RS23-GC08) 2023-10-30
48 [KOPRI-KPDC-00002322]Gravity core from Antarctic Ross Sea (RS23-GC07) 2023-10-30
49 [KOPRI-KPDC-00002321]Gravity core from Antarctic Ross Sea (RS23-GC06) 2023-10-30
50 [KOPRI-KPDC-00002298]Meridional mean SST anomaly in the Arctic Ocean 2023-10-26
51 [KOPRI-KPDC-00002299]Annual, Interannual, and decadal variabilities in SST anomaly in four Arctic subregions 2023-10-26
52 [KOPRI-KPDC-00002285]Net community production estimated via O2/Ar and ecosystem model outputs 2023-10-26
53 [KOPRI-KPDC-00002270]Gravity core from Antarctic Ross Sea (RS23-GC01) 2023-10-26
54 [KOPRI-KPDC-00002284]Gravity core from Antarctic Ross Sea (RS20-GC03) 2023-10-26
55 [KOPRI-KPDC-00002039]Gravity core from Antarctic Amundsen Sea (AM22-GC01) 2023-10-26
56 [KOPRI-KPDC-00000785]Gravity core from Antarctic Bellinghausen Sea (BS17-GC04) 2023-10-26
57 [KOPRI-KPDC-00001605]Gravity core from Antarctic Bellinghausen Sea (BS17-GC18) 2023-10-26
58 [KOPRI-KPDC-00001835]Gravity core from Antarctic Ross Sea (RS21-GC03) 2023-10-26
59 [KOPRI-KPDC-00001836]Gravity core from Antarctic Ross Sea (RS21-GC02) 2023-10-26
60 [KOPRI-KPDC-00002282]Gravity core from Antarctic Ross Sea (RS23-GC05) 2023-10-26
61 [KOPRI-KPDC-00002279]Gravity core from Antarctic Ross Sea (RS23-GC04) 2023-10-26
62 [KOPRI-KPDC-00002275]Gravity core from Antarctic Ross Sea (RS23-GC03) 2023-10-26
63 [KOPRI-KPDC-00002274]Gravity core from Antarctic Ross Sea (RS23-GC02) 2023-10-26
64 [KOPRI-KPDC-00002240]Wavelet analysis results from remotely-sensed chlorophyll time series data 2023-10-26
65 [KOPRI-KPDC-00002239]Trends in ocean surface phytoplankton bloom properies from ocean color remote sensing 2023-10-26
66 [KOPRI-KPDC-00002236]Temporal variation of marine phytoplankton in the surface water of the Antarctic Jang Bogo Station in Terra Nova Bay, January 2023 - June 2023 2023-10-26
67 [KOPRI-KPDC-00002238]Temporal variation of phytoplankton in the surface water of Marian Cove, King George Island, Antarctica, January 2023 - June 2023 2023-10-26
68 [KOPRI-KPDC-00002222]Chlorophyll-a concentration from the Ross Sea, Antarctica, 2023 2023-10-20
69 [KOPRI-KPDC-00002220]Multibeam data of Chukchi sea in Arctic ocean, 2023 / ARA14C 2023-10-10
70 [KOPRI-KPDC-00002217]Geophysical data (multi channel seismic data) collected during the 2013 ARA04C and 2014 ARA05C expeditions on the Beaufort sea 2023-10-04
71 [KOPRI-KPDC-00002213]Gondwana biologger data (2023) 2023-09-22
72 [KOPRI-KPDC-00002212]Jangbogo Biologger data (2023) 2023-09-22
73 [KOPRI-KPDC-00002211]Hourly nitrogen uptake by phytoplankton in Marian Cove (2021-2022) 2023-09-14
74 [KOPRI-KPDC-00002210]Chlorophyll-a concentrations from moored fluorometers in the Korean Arctic Mooring System from 2018 to 2020 in the north of Chukchi Sea 2023-09-01
75 [KOPRI-KPDC-00002204]Underway pCO2 and ∆O2/Ar in Arctic Ocean, 2022 2023-07-27
76 [KOPRI-KPDC-00000269]Chlorophyll-a concentration from the Antarctic Amundsen Sea 2012 2023-07-25
77 [KOPRI-KPDC-00000268]Chlorophyll-a concentration from the Antarctic Amundsen Sea 2010/11 2023-07-25
78 [KOPRI-KPDC-00001906]Temporal variation of phytoplankton in the surface water of Marian Cove, King George Island, Antarctica, September 2021 - December 2021 2023-07-19
79 [KOPRI-KPDC-00001975]Temporal variation of phytoplankton in the surface water of Marian Cove, King George Island, Antarctica, January 2022 - June 2022 2023-07-19
80 [KOPRI-KPDC-00002179]Temporal variation of phytoplankton in the surface water of Marian Cove, King George Island, Antarctica, July 2022 - December 2022 2023-07-19
81 [KOPRI-KPDC-00000655]Temporal variation of marine phytoplankton in the surface water of the Antarctic Jang Bogo Station in Terra Nova Bay, September 2015-August 2016 2023-07-19
82 [KOPRI-KPDC-00001501]Temporal variation of marine phytoplankton in the surface water of the Antarctic Jang Bogo Station in Terra Nova Bay, January 2020- September 2020 2023-07-19
83 [KOPRI-KPDC-00001059]Special varation of phytoplankton abundance in the sea water of Marian Cove, King George Island, Antarctica, February, 2016 2023-07-19
84 [KOPRI-KPDC-00001693]Temporal variation of phytoplankton in the surface water of Marian Cove, King George Island, Antarctica, January 2021 - August 2021 2023-07-19
85 [KOPRI-KPDC-00001907]Temporal variation of marine phytoplankton in the surface water of the Antarctic Jang Bogo Station in Terra Nova Bay, July 2021 - December 2021 2023-07-19
86 [KOPRI-KPDC-00002180]Temporal variation of marine phytoplankton in the surface water of the Antarctic Jang Bogo Station in Terra Nova Bay, July 2022 - December 2022 2023-07-19
87 [KOPRI-KPDC-00000820]Temporal variation of marine phytoplankton in the surface water of the Antarctic Jang Bogo Station in Terra Nova Bay, September 2016-August 2017 2023-07-19
88 [KOPRI-KPDC-00001652]Temporal variation of marine phytoplankton in the surface water of the Antarctic Jang Bogo Station in Terra Nova Bay, October 2020 - December 2020 2023-07-19
89 [KOPRI-KPDC-00001977]Temporal variation of marine phytoplankton in the surface water of the Antarctic Jang Bogo Station in Terra Nova Bay, January 2022 - June 2022 2023-07-19
90 [KOPRI-KPDC-00001428]Temporal variation of marine phytoplankton in the surface water of the Antarctic Jang Bogo Station in Terra Nova Bay, October 2018- December 2019 2023-07-19
91 [KOPRI-KPDC-00000544]Temporal variation of marine phytoplankton in the surface water of Marian Cove, King George Island, Antarctica, 2015 2023-07-19
92 [KOPRI-KPDC-00001594]Temporal variation of phytoplankton in the surface water of Marian Cove, King George Island, Antarctica, January 2020- October 2020 2023-07-19
93 [KOPRI-KPDC-00001183]Temporal variation of phytoplankton in the surface water of Marian Cove, King George Island, Antarctica, 2017 2023-07-19
94 [KOPRI-KPDC-00001429]Temporal variation of phytoplankton in the surface water of Marian Cove, King George Island, Antarctica, 2019 2023-07-19
95 [KOPRI-KPDC-00001653]Temporal variation of phytoplankton in the surface water of Marian Cove, King George Island, Antarctica, November 2020 - December 2020 2023-07-19
96 [KOPRI-KPDC-00000833]Special variation of phytoplankton abundance in the sea water of Marian Cove, King George Island, Antarctica, February, 2017 2023-07-19
97 [KOPRI-KPDC-00000545]Temporal variation of marine phytoplankton in the surface water of the Antarctic Jang Bogo Station in Terra Nova Bay, 2015 2023-07-19
98 [KOPRI-KPDC-00000667]Temporal variation of phytoplankton in the surface water of Marian Cove, King George Island, Antarctica, September 2015-August 2016 2023-07-19
99 [KOPRI-KPDC-00000832]Special variation of chlorophyll a concentration in the sea water of Marian Cove, King George Island, Antarctica, February, 2017 2023-07-19
100 [KOPRI-KPDC-00001708]Temporal variation of marine phytoplankton in the surface water of the Antarctic Jang Bogo Station in Terra Nova Bay, January 2021 - June 2021 2023-07-19